createdAt,value
2022-09-07T00:01:57.496Z,14.70
2022-09-07T00:06:51.180Z,14.70
2022-09-07T00:09:17.821Z,14.70
2022-09-07T00:11:44.492Z,14.70
2022-09-07T00:14:11.112Z,14.70
2022-09-07T00:16:37.706Z,14.80
2022-09-07T00:19:04.696Z,14.80
2022-09-07T00:23:58.844Z,14.70
2022-09-07T00:26:28.208Z,14.70
2022-09-07T00:29:00.160Z,14.70
2022-09-07T00:31:29.955Z,14.60
2022-09-07T00:33:59.408Z,14.60
2022-09-07T00:36:26.120Z,14.60
2022-09-07T00:38:53.020Z,14.60
2022-09-07T00:41:21.225Z,14.60
2022-09-07T00:43:54.107Z,14.60
2022-09-07T00:46:24.005Z,14.60
2022-09-07T00:49:12.748Z,14.60
2022-09-07T00:51:41.178Z,14.60
2022-09-07T00:54:18.036Z,14.60
2022-09-07T00:56:46.219Z,14.70
2022-09-07T00:59:15.932Z,14.50
2022-09-07T01:01:42.907Z,14.70
2022-09-07T01:04:09.878Z,14.60
2022-09-07T01:06:38.518Z,14.60
2022-09-07T01:09:18.765Z,14.60
2022-09-07T01:11:50.816Z,14.60
2022-09-07T01:14:21.123Z,14.70
2022-09-07T01:17:02.164Z,14.70
2022-09-07T01:20:07.377Z,14.50
2022-09-07T01:22:57.159Z,14.50
2022-09-07T01:25:42.537Z,14.50
2022-09-07T01:28:27.205Z,14.50
2022-09-07T01:31:27.255Z,14.50
2022-09-07T01:34:26.305Z,14.60
2022-09-07T01:37:00.305Z,14.60
2022-09-07T01:39:53.777Z,14.50
2022-09-07T01:42:24.410Z,14.60
2022-09-07T01:44:57.778Z,14.60
2022-09-07T01:47:33.875Z,14.50
2022-09-07T01:50:10.191Z,14.60
2022-09-07T01:52:55.280Z,14.60
2022-09-07T01:55:31.772Z,14.60
2022-09-07T01:58:06.245Z,14.60
2022-09-07T02:00:34.966Z,14.60
2022-09-07T02:03:12.912Z,14.60
2022-09-07T02:06:06.820Z,14.60
2022-09-07T02:09:00.813Z,14.60
2022-09-07T02:11:40.203Z,14.50
2022-09-07T02:14:31.212Z,14.50
2022-09-07T02:17:16.988Z,14.50
2022-09-07T02:19:59.930Z,14.50
2022-09-07T02:22:29.307Z,14.50
2022-09-07T02:24:59.759Z,14.50
2022-09-07T02:27:43.659Z,14.50
2022-09-07T02:30:10.858Z,14.50
2022-09-07T02:32:37.517Z,14.50
2022-09-07T02:35:05.421Z,14.50
2022-09-07T02:37:34.011Z,14.50
2022-09-07T02:40:00.817Z,14.50
2022-09-07T02:42:33.604Z,14.50
2022-09-07T02:45:02.043Z,14.50
2022-09-07T02:47:54.343Z,14.50
2022-09-07T02:50:49.584Z,14.50
2022-09-07T02:53:42.752Z,14.50
2022-09-07T02:56:40.982Z,14.60
2022-09-07T03:05:28.596Z,14.40
2022-09-07T03:08:02.209Z,14.40
2022-09-07T03:10:29.832Z,14.40
2022-09-07T03:12:56.486Z,14.40
2022-09-07T03:15:27.796Z,14.30
2022-09-07T03:17:54.477Z,14.30
2022-09-07T03:20:22.221Z,14.40
2022-09-07T03:22:50.999Z,14.40
2022-09-07T03:25:18.324Z,14.50
2022-09-07T03:27:45.249Z,14.30
2022-09-07T03:30:13.114Z,14.30
2022-09-07T03:37:38.900Z,14.20
2022-09-07T03:40:08.233Z,14.20
2022-09-07T03:42:35.723Z,14.20
2022-09-07T03:45:02.885Z,14.20
2022-09-07T03:47:29.510Z,14.20
2022-09-07T03:49:56.072Z,14.20
2022-09-07T03:52:22.648Z,14.60
2022-09-07T03:54:49.215Z,14.30
2022-09-07T03:57:15.935Z,14.30
2022-09-07T04:02:09.570Z,14.20
2022-09-07T04:04:36.208Z,14.20
2022-09-07T04:07:03.649Z,14.60
2022-09-07T04:09:30.432Z,14.10
2022-09-07T04:11:56.984Z,14.00
2022-09-07T04:14:23.667Z,14.10
2022-09-07T04:16:50.894Z,14.20
2022-09-07T04:19:17.965Z,14.20
2022-09-07T04:21:46.509Z,14.20
2022-09-07T04:24:17.859Z,14.20
2022-09-07T04:26:45.063Z,14.20
2022-09-07T04:29:12.849Z,14.20
2022-09-07T04:31:39.974Z,14.10
2022-09-07T04:34:07.502Z,14.00
2022-09-07T04:36:34.828Z,14.10
2022-09-07T04:39:04.196Z,14.10
2022-09-07T04:41:32.445Z,14.10
2022-09-07T04:44:01.009Z,14.00
2022-09-07T04:46:36.187Z,14.10
2022-09-07T04:49:06.202Z,14.10
2022-09-07T04:51:33.149Z,14.20
2022-09-07T04:54:01.748Z,14.10
2022-09-07T04:56:28.742Z,14.20
2022-09-07T04:58:55.597Z,14.20
2022-09-07T05:01:24.750Z,14.20
2022-09-07T05:03:51.884Z,14.20
2022-09-07T05:06:21.150Z,14.20
2022-09-07T05:08:52.499Z,14.20
2022-09-07T05:11:26.259Z,14.20
2022-09-07T05:14:02.484Z,14.20
2022-09-07T05:16:30.350Z,14.20
2022-09-07T05:18:59.301Z,14.30
2022-09-07T05:21:28.819Z,14.20
2022-09-07T05:23:57.574Z,14.20
2022-09-07T05:26:27.217Z,14.30
2022-09-07T05:31:41.075Z,14.30
2022-09-07T05:36:56.093Z,14.40
2022-09-07T05:39:22.764Z,14.40
2022-09-07T05:41:49.786Z,14.40
2022-09-07T05:47:03.759Z,14.40
2022-09-07T05:49:30.568Z,14.40
2022-09-07T05:51:57.119Z,14.40
2022-09-07T05:54:23.675Z,14.40
2022-09-07T05:56:50.232Z,14.40
2022-09-07T05:59:16.789Z,14.40
2022-09-07T06:01:43.402Z,14.40
2022-09-07T06:04:10.004Z,14.40
2022-09-07T06:06:40.715Z,14.40
2022-09-07T06:09:07.866Z,14.30
2022-09-07T06:11:34.428Z,14.30
2022-09-07T06:14:01.027Z,14.30
2022-09-07T06:16:27.606Z,14.20
2022-09-07T06:18:54.467Z,14.20
2022-09-07T06:21:23.577Z,14.20
2022-09-07T06:23:51.252Z,14.10
2022-09-07T06:26:20.055Z,14.10
2022-09-07T06:28:49.837Z,14.00
2022-09-07T06:31:21.962Z,14.00
2022-09-07T06:33:49.308Z,14.00
2022-09-07T06:36:21.628Z,14.00
2022-09-07T06:38:49.717Z,13.90
2022-09-07T06:44:09.156Z,13.90
2022-09-07T06:49:23.645Z,13.80
2022-09-07T06:51:50.787Z,14.00
2022-09-07T06:57:08.700Z,14.10
2022-09-07T06:59:36.035Z,13.90
2022-09-07T07:02:02.764Z,13.90
2022-09-07T07:04:29.404Z,14.00
2022-09-07T07:11:50.234Z,13.90
2022-09-07T07:14:17.841Z,13.70
2022-09-07T07:16:44.737Z,13.70
2022-09-07T07:19:11.348Z,13.80
2022-09-07T07:22:03.152Z,13.80
2022-09-07T07:24:24.587Z,13.80
2022-09-07T07:26:51.205Z,13.70
2022-09-07T07:29:18.890Z,13.80
2022-09-07T07:31:47.012Z,13.80
2022-09-07T07:34:14.004Z,13.80
2022-09-07T07:36:40.690Z,13.80
2022-09-07T07:39:07.378Z,13.80
2022-09-07T07:44:21.248Z,13.90
2022-09-07T07:46:49.841Z,13.90
2022-09-07T07:49:16.674Z,13.80
2022-09-07T07:54:37.118Z,13.90
2022-09-07T07:57:12.199Z,13.90
2022-09-07T07:59:39.469Z,13.90
2022-09-07T08:02:08.770Z,13.90
2022-09-07T08:04:35.943Z,14.00
2022-09-07T08:07:08.627Z,13.90
2022-09-07T08:09:36.876Z,13.90
2022-09-07T08:12:03.946Z,13.90
2022-09-07T08:14:30.693Z,14.00
2022-09-07T08:16:57.458Z,14.00
2022-09-07T08:19:23.987Z,14.00
2022-09-07T08:21:50.545Z,14.10
2022-09-07T08:24:17.076Z,14.10
2022-09-07T08:26:43.585Z,14.10
2022-09-07T08:29:10.112Z,14.10
2022-09-07T08:31:37.512Z,14.20
2022-09-07T08:34:04.135Z,14.20
2022-09-07T08:36:31.913Z,14.20
2022-09-07T08:38:58.472Z,14.20
2022-09-07T08:41:49.886Z,14.30
2022-09-07T08:44:25.692Z,14.30
2022-09-07T08:47:12.526Z,14.40
2022-09-07T08:49:57.795Z,14.40
2022-09-07T08:52:33.752Z,14.50
2022-09-07T08:55:18.865Z,14.50
2022-09-07T08:57:52.771Z,14.60
2022-09-07T09:00:19.852Z,14.60
2022-09-07T09:03:28.627Z,14.60
2022-09-07T09:06:12.227Z,14.70
2022-09-07T09:08:51.191Z,14.70
2022-09-07T09:11:37.974Z,14.80
2022-09-07T09:14:19.590Z,14.90
2022-09-07T09:16:52.911Z,15.00
2022-09-07T09:19:49.275Z,15.10
2022-09-07T09:22:21.994Z,15.30
2022-09-07T09:24:55.361Z,15.40
2022-09-07T09:27:21.867Z,15.50
2022-09-07T09:29:48.389Z,15.60
2022-09-07T09:32:41.297Z,15.70
2022-09-07T09:35:15.621Z,15.80
2022-09-07T09:37:43.393Z,15.90
2022-09-07T09:40:29.381Z,15.90
2022-09-07T09:43:01.563Z,16.10
2022-09-07T09:46:12.249Z,16.10
2022-09-07T09:48:22.273Z,16.30
2022-09-07T09:53:51.672Z,16.40
2022-09-07T09:56:18.764Z,16.50
2022-09-07T10:01:35.935Z,16.80
2022-09-07T10:04:27.940Z,17.10
2022-09-07T10:07:17.216Z,17.20
2022-09-07T10:09:50.269Z,17.50
2022-09-07T10:12:35.048Z,17.70
2022-09-07T10:15:04.966Z,17.80
2022-09-07T10:17:41.597Z,17.90
2022-09-07T10:20:17.029Z,18.20
2022-09-07T10:22:48.529Z,18.30
2022-09-07T10:25:39.526Z,18.50
2022-09-07T10:28:09.996Z,18.70
2022-09-07T10:30:53.904Z,18.70
2022-09-07T10:34:25.664Z,18.80
2022-09-07T10:36:44.465Z,19.00
2022-09-07T10:39:39.286Z,19.20
2022-09-07T10:42:29.416Z,19.30
2022-09-07T10:50:32.348Z,19.90
2022-09-07T10:53:40.845Z,19.90
2022-09-07T10:56:30.176Z,20.00
2022-09-07T11:02:39.222Z,20.40
2022-09-07T11:05:31.046Z,20.70
2022-09-07T11:14:24.274Z,21.30
2022-09-07T11:22:23.646Z,21.50
2022-09-07T11:35:40.816Z,21.80
2022-09-07T11:38:23.023Z,21.90
2022-09-07T11:41:15.009Z,21.90
2022-09-07T11:46:49.614Z,22.00
2022-09-07T11:49:21.694Z,22.10
2022-09-07T11:54:35.364Z,22.40
2022-09-07T11:57:17.303Z,22.40
2022-09-07T12:02:58.399Z,22.50
2022-09-07T12:08:59.969Z,22.90
2022-09-07T12:11:26.432Z,22.70
2022-09-07T12:14:07.076Z,22.80
2022-09-07T12:16:58.407Z,22.70
2022-09-07T12:19:27.001Z,22.60
2022-09-07T12:21:53.503Z,22.80
2022-09-07T12:27:01.992Z,23.20
2022-09-07T12:34:53.221Z,23.20
2022-09-07T12:40:33.030Z,23.70
2022-09-07T12:43:14.679Z,23.50
2022-09-07T12:48:36.062Z,23.90
2022-09-07T12:51:09.841Z,23.90
2022-09-07T12:59:16.006Z,23.90
2022-09-07T13:02:19.849Z,24.00
2022-09-07T13:04:52.562Z,24.10
2022-09-07T13:13:05.038Z,24.50
2022-09-07T13:18:05.542Z,24.50
2022-09-07T13:20:37.614Z,24.40
2022-09-07T13:25:48.034Z,24.50
2022-09-07T13:31:29.747Z,24.60
2022-09-07T13:33:57.083Z,24.60
2022-09-07T13:36:37.594Z,24.70
2022-09-07T13:39:11.434Z,24.80
2022-09-07T13:41:45.548Z,24.90
2022-09-07T13:44:25.588Z,24.80
2022-09-07T13:47:14.255Z,24.80
2022-09-07T13:50:08.495Z,24.70
2022-09-07T13:52:55.268Z,24.50
2022-09-07T13:55:40.991Z,24.50
2022-09-07T13:58:17.889Z,24.50
2022-09-07T14:01:02.164Z,24.60
2022-09-07T14:03:44.836Z,24.50
2022-09-07T14:06:20.995Z,24.50
2022-09-07T14:08:54.162Z,24.50
2022-09-07T14:11:27.315Z,24.60
2022-09-07T14:14:25.891Z,24.60
2022-09-07T14:17:01.796Z,24.40
2022-09-07T14:19:34.448Z,24.40
2022-09-07T14:22:04.496Z,24.40
2022-09-07T14:24:34.555Z,24.40
2022-09-07T14:27:01.831Z,24.40
2022-09-07T14:29:34.435Z,24.50
2022-09-07T14:32:03.891Z,24.50
2022-09-07T14:34:34.680Z,24.50
2022-09-07T14:37:05.682Z,24.60
2022-09-07T14:39:37.388Z,24.60
2022-09-07T14:42:04.579Z,24.60
2022-09-07T14:44:38.938Z,24.70
2022-09-07T14:47:30.318Z,24.60
2022-09-07T14:50:04.663Z,24.60
2022-09-07T14:52:42.486Z,24.40
2022-09-07T14:55:40.509Z,24.40
2022-09-07T14:58:13.887Z,24.50
2022-09-07T15:00:41.923Z,24.40
2022-09-07T15:03:31.610Z,24.40
2022-09-07T15:06:01.251Z,24.40
2022-09-07T15:08:43.540Z,24.30
2022-09-07T15:11:36.181Z,24.40
2022-09-07T15:14:20.345Z,24.30
2022-09-07T15:19:50.089Z,24.30
2022-09-07T15:22:18.337Z,24.30
2022-09-07T15:24:48.688Z,24.20
2022-09-07T15:27:27.224Z,24.00
2022-09-07T15:29:53.835Z,24.00
2022-09-07T15:32:20.573Z,24.00
2022-09-07T15:34:47.131Z,23.90
2022-09-07T15:40:01.916Z,23.80
2022-09-07T15:45:16.359Z,23.70
2022-09-07T15:47:52.113Z,23.70
2022-09-07T15:50:19.448Z,23.70
2022-09-07T15:52:46.423Z,23.70
2022-09-07T15:55:17.015Z,23.70
2022-09-07T15:57:59.299Z,23.70
2022-09-07T16:00:30.892Z,23.60
2022-09-07T16:03:06.155Z,23.50
2022-09-07T16:05:33.647Z,23.60
2022-09-07T16:11:04.434Z,23.50
2022-09-07T16:13:31.845Z,23.50
2022-09-07T16:15:59.787Z,23.50
2022-09-07T16:18:31.240Z,23.50
2022-09-07T16:21:06.699Z,23.40
2022-09-07T16:23:33.460Z,23.40
2022-09-07T16:26:01.880Z,23.40
2022-09-07T16:28:28.970Z,23.40
2022-09-07T16:30:56.453Z,23.40
2022-09-07T16:33:29.196Z,23.30
2022-09-07T16:36:06.115Z,23.20
2022-09-07T16:38:48.694Z,23.20
2022-09-07T16:43:44.034Z,23.10
2022-09-07T16:48:40.612Z,23.00
2022-09-07T16:51:08.015Z,22.90
2022-09-07T16:53:36.330Z,22.90
2022-09-07T16:56:08.703Z,22.80
2022-09-07T16:58:37.995Z,22.80
2022-09-07T17:01:09.331Z,22.90
2022-09-07T17:06:06.118Z,22.70
2022-09-07T17:08:34.158Z,22.70
2022-09-07T17:11:03.283Z,22.80
2022-09-07T17:13:31.904Z,22.80
2022-09-07T17:16:12.168Z,22.70
2022-09-07T17:21:29.948Z,22.50
2022-09-07T17:23:56.562Z,22.40
2022-09-07T17:36:42.910Z,22.20
2022-09-07T17:41:42.981Z,22.00
2022-09-07T17:44:09.571Z,22.00
2022-09-07T17:46:36.194Z,21.90
2022-09-07T17:49:03.481Z,21.80
2022-09-07T17:51:32.723Z,21.80
2022-09-07T17:54:02.604Z,21.70
2022-09-07T17:56:32.233Z,21.70
2022-09-07T18:01:46.568Z,21.50
2022-09-07T18:04:14.339Z,21.40
2022-09-07T18:11:51.068Z,21.10
2022-09-07T18:14:18.887Z,21.00
2022-09-07T18:24:17.341Z,20.60
2022-09-07T18:26:49.990Z,20.50
2022-09-07T18:31:59.744Z,20.50
2022-09-07T18:34:28.619Z,20.40
2022-09-07T18:36:55.359Z,20.30
2022-09-07T18:39:22.320Z,20.30
2022-09-07T18:41:49.080Z,20.20
2022-09-07T18:47:05.395Z,20.00
2022-09-07T18:49:31.984Z,20.00
2022-09-07T18:54:45.195Z,19.80
2022-09-07T18:57:13.195Z,19.70
2022-09-07T18:59:41.008Z,19.70
2022-09-07T19:09:59.548Z,19.50
2022-09-07T19:12:26.563Z,19.40
2022-09-07T19:14:53.082Z,19.40
2022-09-07T19:19:48.960Z,19.20
2022-09-07T19:22:15.684Z,19.20
2022-09-07T19:24:42.342Z,19.20
2022-09-07T19:27:09.080Z,19.20
2022-09-07T19:29:35.668Z,19.10
2022-09-07T19:32:12.905Z,19.10
2022-09-07T19:34:43.386Z,19.10
2022-09-07T19:37:11.588Z,19.00
2022-09-07T19:39:38.296Z,19.00
2022-09-07T19:42:05.712Z,18.90
2022-09-07T19:44:32.663Z,19.00
2022-09-07T19:47:00.458Z,18.90
2022-09-07T19:49:27.624Z,18.90
2022-09-07T19:51:54.305Z,18.90
2022-09-07T19:54:20.854Z,18.90
2022-09-07T19:56:47.413Z,18.90
2022-09-07T19:59:14.397Z,18.80
2022-09-07T20:01:45.806Z,18.80
2022-09-07T20:06:49.606Z,18.80
2022-09-07T20:09:17.938Z,18.90
2022-09-07T20:11:46.933Z,18.90
2022-09-07T20:21:38.832Z,18.60
2022-09-07T20:24:08.308Z,18.70
2022-09-07T20:26:35.192Z,18.70
2022-09-07T20:34:20.817Z,18.50
2022-09-07T20:39:19.497Z,18.50
2022-09-07T20:41:46.834Z,18.50
2022-09-07T20:44:14.219Z,18.40
2022-09-07T20:46:40.886Z,18.40
2022-09-07T20:49:07.885Z,18.30
2022-09-07T20:51:35.196Z,18.30
2022-09-07T20:54:01.716Z,18.30
2022-09-07T20:56:29.270Z,18.40
2022-09-07T20:58:58.143Z,18.20
2022-09-07T21:01:24.822Z,18.20
2022-09-07T21:03:55.647Z,18.10
2022-09-07T21:06:23.120Z,18.10
2022-09-07T21:11:19.844Z,18.10
2022-09-07T21:13:46.878Z,18.20
2022-09-07T21:16:16.131Z,18.10
2022-09-07T21:18:44.079Z,18.10
2022-09-07T21:21:20.480Z,18.00
2022-09-07T21:23:47.903Z,17.90
2022-09-07T21:26:15.013Z,17.90
2022-09-07T21:28:41.541Z,18.10
2022-09-07T21:31:09.288Z,17.80
2022-09-07T21:33:37.096Z,17.80
2022-09-07T21:36:12.329Z,17.80
2022-09-07T21:38:40.963Z,17.80
2022-09-07T21:41:13.176Z,17.90
2022-09-07T21:46:26.058Z,17.70
2022-09-07T21:48:52.950Z,17.70
2022-09-07T21:51:19.506Z,17.60
2022-09-07T21:53:57.500Z,17.60
2022-09-07T21:56:24.958Z,17.60
2022-09-07T21:58:55.516Z,17.70
2022-09-07T22:01:23.517Z,17.50
2022-09-07T22:06:20.732Z,17.50
2022-09-07T22:11:17.229Z,17.50
2022-09-07T22:13:44.337Z,17.40
2022-09-07T22:18:40.084Z,17.30
2022-09-07T22:21:09.616Z,17.30
2022-09-07T22:23:38.959Z,17.30
2022-09-07T22:28:33.973Z,17.20
2022-09-07T22:31:14.638Z,17.20
2022-09-07T22:41:27.245Z,17.10
2022-09-07T22:43:54.799Z,17.10
2022-09-07T22:46:23.612Z,17.10
2022-09-07T22:48:50.755Z,17.00
2022-09-07T22:51:17.561Z,17.00
2022-09-07T22:53:44.339Z,17.00
2022-09-07T22:56:16.410Z,17.00
2022-09-07T22:58:54.536Z,17.00
2022-09-07T23:01:21.966Z,17.00
2022-09-07T23:03:49.220Z,16.90
2022-09-07T23:06:24.757Z,16.90
2022-09-07T23:08:52.476Z,16.90
2022-09-07T23:13:51.043Z,16.90
2022-09-07T23:16:17.652Z,16.80
2022-09-07T23:18:44.229Z,16.80
2022-09-07T23:21:11.084Z,16.80
2022-09-07T23:23:38.477Z,16.70
2022-09-07T23:26:05.763Z,16.70
2022-09-07T23:28:32.790Z,16.70
2022-09-07T23:30:59.454Z,16.60
2022-09-07T23:33:26.441Z,16.60
2022-09-07T23:36:10.968Z,16.60
2022-09-07T23:41:04.751Z,16.60
2022-09-07T23:43:31.554Z,16.50
2022-09-07T23:45:59.825Z,16.50
2022-09-07T23:48:26.498Z,16.50
2022-09-07T23:50:53.254Z,16.50
2022-09-07T23:53:22.115Z,16.40
2022-09-07T23:55:50.904Z,16.40
2022-09-07T23:58:18.527Z,16.40
